STS Fryderyk Chopin — SPS2298 — position and weather

sailwx.info

Track history (hours):
 
Tides and Currents Weather Stations Pressure Air Temp Water Temp Dewpoint Dewpoint Depression Visibility Wind Speed Wind Dir Waves Ship Positions

STS Fryderyk Chopin (Poland)

Ship's website: http://www.fryderykchopin.pl/

Last reported at 2019-Aug-24 13:23 UTC. Time now 2019-Aug-24 20:30 UTC.
Position N 56°08' E 007°37'.

Length 44 m; draft 4.2 m.

Type: Sailing vessel. MMSI: 261000290.

Date/timePositionNaut miles runAvg speedWind from/ knotsBaromVisibWave heightAir tempDewpointWater temp
2019-Aug-24 13:23N 56°08' E 007°37'1 1.9
2019-Aug-24 13:00N 56°09' E 007°38'2 3.6
2019-Aug-24 12:30N 56°11' E 007°39'4 7.3
2019-Aug-24 12:00N 56°14' E 007°41'4 7.0
2019-Aug-24 11:30N 56°18' E 007°43'3 6.7
2019-Aug-24 11:00N 56°21' E 007°46'3 6.6
2019-Aug-24 10:30N 56°24' E 007°48'3 6.3
2019-Aug-24 09:59N 56°27' E 007°50'3 5.8
2019-Aug-24 09:29N 56°29' E 007°52'3 6.0
2019-Aug-24 09:00N 56°32' E 007°54'3 6.0
2019-Aug-24 08:30N 56°35' E 007°56'2 3.5
2019-Aug-24 08:00N 56°37' E 007°57'2 3.5
2019-Aug-24 07:30N 56°38' E 007°58'2 3.2
2019-Aug-24 07:00N 56°40' E 007°59'2 4.9
2019-Aug-24 06:30N 56°42' E 007°60'4 7.0
2019-Aug-24 06:00N 56°45' E 008°02'4 7.2
2019-Aug-24 05:30N 56°49' E 008°03'4 7.8
2019-Aug-24 05:00N 56°53' E 008°04'4 8.0
2019-Aug-24 04:30N 56°57' E 008°06'4 7.8
2019-Aug-24 04:00N 57°00' E 008°08'4 7.5
2019-Aug-24 03:30N 57°04' E 008°10'4 7.5
2019-Aug-24 03:00N 57°08' E 008°11'4 7.6
2019-Aug-24 02:30N 57°11' E 008°13'2 4.8
2019-Aug-24 02:00N 57°14' E 008°14'1 1.6
2019-Aug-24 01:29N 57°13' E 008°15'1 1.8
2019-Aug-24 01:00N 57°12' E 008°15'1 1.8
2019-Aug-24 00:30N 57°11' E 008°15'1 1.9
2019-Aug-23 23:59N 57°10' E 008°15'1 2.3
2019-Aug-23 23:30N 57°09' E 008°16'1 2.6
2019-Aug-23 23:00N 57°08' E 008°18'2 3.8
2019-Aug-23 22:30N 57°06' E 008°19'2 4.7
2019-Aug-23 22:00N 57°04' E 008°21'2 4.1
2019-Aug-23 21:30N 57°06' E 008°20'2 4.5
2019-Aug-23 21:00N 57°08' E 008°19'2 4.9
2019-Aug-23 20:30N 57°11' E 008°18'3 5.1
2019-Aug-23 19:59N 57°13' E 008°17'2 5.0
2019-Aug-23 19:30N 57°16' E 008°16'2 4.5
2019-Aug-23 19:00N 57°18' E 008°15'2 4.7
2019-Aug-23 18:30N 57°20' E 008°14'3 5.3
2019-Aug-23 18:00N 57°23' E 008°12'2 4.1
2019-Aug-23 17:30N 57°24' E 008°11'2 3.4
2019-Aug-23 17:00N 57°26' E 008°09'2 4.5
2019-Aug-23 16:30N 57°28' E 008°08'2 4.7
2019-Aug-23 16:00N 57°30' E 008°08'2 4.9
2019-Aug-23 15:30N 57°33' E 008°07'3 6.3
2019-Aug-23 15:00N 57°36' E 008°04'3 5.2
2019-Aug-23 14:30N 57°38' E 008°02'2 4.5
2019-Aug-23 14:00N 57°40' E 008°02'2 5.0
2019-Aug-23 13:30N 57°43' E 008°02'3 5.3
2019-Aug-23 13:00N 57°45' E 008°01'2 4.0
2019-Aug-23 12:30N 57°47' E 008°01'2 4.2
2019-Aug-23 12:00N 57°50' E 008°02'2 4.3
2019-Aug-23 11:30N 57°52' E 008°02'2 4.8
2019-Aug-23 11:00N 57°54' E 008°03'2 4.8
2019-Aug-23 10:31N 57°56' E 008°04'2 4.9
2019-Aug-23 10:00N 57°59' E 008°04'3 5.2
2019-Aug-23 09:30N 58°01' E 008°03'3 5.5
2019-Aug-23 09:00N 58°04' E 008°04'4 8.0
2019-Aug-23 08:30N 58°08' E 008°01'1 1.7
2019-Aug-23 07:59N 58°08' E 007°60'0 0.0
2019-Aug-23 07:29N 58°08' E 007°60'0 0.0
2019-Aug-23 07:00N 58°08' E 007°60'0 0.0
2019-Aug-23 06:30N 58°08' E 007°60'0 0.0
2019-Aug-23 06:00N 58°08' E 007°60'0 0.0
2019-Aug-23 05:30N 58°08' E 007°60'0 0.0
2019-Aug-23 05:00N 58°08' E 007°60'0 0.0
2019-Aug-23 04:30N 58°08' E 007°60'0 0.0
2019-Aug-23 04:00N 58°08' E 007°60'0 0.0
2019-Aug-23 03:30N 58°08' E 007°60'0 0.0
2019-Aug-23 03:00N 58°08' E 007°60'0 0.0
2019-Aug-23 02:30N 58°08' E 007°60'0 0.0
2019-Aug-23 02:00N 58°08' E 007°60'0 0.0
2019-Aug-23 01:30N 58°08' E 007°60'0 0.0
2019-Aug-23 01:00N 58°08' E 007°60'0 0.0
2019-Aug-23 00:30N 58°08' E 007°60'0 0.0
2019-Aug-23 00:00N 58°08' E 007°60'0 0.0
2019-Aug-22 23:30N 58°08' E 007°60'0 0.0
2019-Aug-22 23:00N 58°08' E 007°60'0 0.0
2019-Aug-22 22:30N 58°08' E 007°60'0 0.0
2019-Aug-22 22:00N 58°08' E 007°60'0 0.0
2019-Aug-22 21:30N 58°08' E 007°60'0 0.0
2019-Aug-22 21:00N 58°08' E 007°60'0 0.0
2019-Aug-22 20:30N 58°08' E 007°60'0 0.0
2019-Aug-22 20:00N 58°08' E 007°60'0 0.0
2019-Aug-22 19:30N 58°08' E 007°60'0 0.0
2019-Aug-22 19:00N 58°08' E 007°60'0 0.0
2019-Aug-22 18:30N 58°08' E 007°60'0 0.0
2019-Aug-22 18:00N 58°08' E 007°60'0 0.0
2019-Aug-22 17:30N 58°08' E 007°60'0 0.0
2019-Aug-22 17:00N 58°08' E 007°60'0 0.0
2019-Aug-22 16:30N 58°08' E 007°60'0 0.0
2019-Aug-22 16:00N 58°08' E 007°60'0 0.0
2019-Aug-22 15:30N 58°08' E 007°60'0 0.0
2019-Aug-22 15:00N 58°08' E 007°60'0 0.0
2019-Aug-22 14:30N 58°08' E 007°60'0 0.0
2019-Aug-22 14:00N 58°08' E 007°60'0 0.0
2019-Aug-22 13:30N 58°08' E 007°60'0 0.0
2019-Aug-22 13:00N 58°08' E 007°60'0 0.0
2019-Aug-22 12:30N 58°08' E 007°60'0 0.0
2019-Aug-22 12:00N 58°08' E 007°60'0 0.0
2019-Aug-22 11:30N 58°08' E 007°60'0 0.0
2019-Aug-22 11:00N 58°08' E 007°60'0 0.0
2019-Aug-22 10:30N 58°08' E 007°60'0 0.0
2019-Aug-22 10:00N 58°08' E 007°60'0 0.0
2019-Aug-22 09:30N 58°08' E 007°60'0 0.0
2019-Aug-22 09:00N 58°08' E 007°60'0 0.0
2019-Aug-22 08:30N 58°08' E 007°60'0 0.0
2019-Aug-22 08:00N 58°08' E 007°60'0 0.0
2019-Aug-22 07:30N 58°08' E 007°60'0 0.0
2019-Aug-22 07:00N 58°08' E 007°60'0 0.0
2019-Aug-22 06:30N 58°08' E 007°60'0 0.0
2019-Aug-22 06:00N 58°08' E 007°60'0 0.0
2019-Aug-22 05:30N 58°08' E 007°60'0 0.0
2019-Aug-22 05:00N 58°08' E 007°60'0 0.0
2019-Aug-22 04:30N 58°08' E 007°60'0 0.2
2019-Aug-22 04:00N 58°08' E 007°60'2 3.7
2019-Aug-22 03:30N 58°07' E 008°02'3 6.2
2019-Aug-22 03:00N 58°04' E 008°05'3 6.7
2019-Aug-22 02:30N 58°04' E 008°12'3 4.7
2019-Aug-22 01:58N 58°05' E 008°15'0 0.9
2019-Aug-22 01:28N 58°05' E 008°16'0 0.9
2019-Aug-22 00:58N 58°04' E 008°16'0 0.7
2019-Aug-22 00:28N 58°04' E 008°16'1 1.0
2019-Aug-21 23:58N 58°04' E 008°17'1 1.5
2019-Aug-21 23:31N 58°04' E 008°18'3 6.6
2019-Aug-21 23:00N 58°03' E 008°25'4 8.2
2019-Aug-21 22:30N 58°03' E 008°32'3 5.9
2019-Aug-21 22:01N 58°03' E 008°38'4 7.1
2019-Aug-21 21:30N 58°06' E 008°41'4 9.0
2019-Aug-21 21:00N 58°10' E 008°46'4 8.5
2019-Aug-21 20:30N 58°13' E 008°49'4 7.8
2019-Aug-21 20:01N 58°17' E 008°52'4 7.4
2019-Aug-21 19:30N 58°21' E 008°54'4 7.1
2019-Aug-21 19:00N 58°24' E 008°55'3 5.6
2019-Aug-21 18:31N 58°27' E 008°57'3 6.4
2019-Aug-21 18:00N 58°27' E 009°03'3 5.9
2019-Aug-21 17:30N 58°27' E 009°09'3 5.5
2019-Aug-21 17:00N 58°28' E 009°14'3 5.7
2019-Aug-21 16:30N 58°28' E 009°19'2 4.8
2019-Aug-21 16:00N 58°27' E 009°24'4 8.0
2019-Aug-21 15:30N 58°25' E 009°30'4 7.9
2019-Aug-21 15:00N 58°23' E 009°36'4 7.7
2019-Aug-21 14:29N 58°20' E 009°41'4 7.9
2019-Aug-21 14:00N 58°17' E 009°46'4 7.4
2019-Aug-21 13:30N 58°14' E 009°51'4 7.2
2019-Aug-21 13:00N 58°11' E 009°55'4 7.3
2019-Aug-21 12:29N 58°08' E 009°59'3 6.7
2019-Aug-21 11:59N 58°05' E 010°03'3 5.7
2019-Aug-21 11:30N 58°03' E 010°05'3 5.2
2019-Aug-21 11:01N 58°06' E 010°05'3 5.6
2019-Aug-21 10:30N 58°08' E 010°05'2 4.8
2019-Aug-21 10:01N 58°11' E 010°06'2 4.2
2019-Aug-21 09:31N 58°13' E 010°07'2 4.5
2019-Aug-21 09:00N 58°15' E 010°08'2 4.5
2019-Aug-21 08:30N 58°17' E 010°08'2 4.4
2019-Aug-21 08:01N 58°19' E 010°09'2 4.2
2019-Aug-21 07:31N 58°21' E 010°11'2 3.1
2019-Aug-21 07:00N 58°23' E 010°11'0 0.8
2019-Aug-21 06:30N 58°22' E 010°12'2 3.6
2019-Aug-21 06:00N 58°21' E 010°12'2 4.3
2019-Aug-21 05:30N 58°19' E 010°14'2 4.3
2019-Aug-21 05:01N 58°17' E 010°15'2 4.4
2019-Aug-21 04:30N 58°15' E 010°17'3 5.3
2019-Aug-21 04:00N 58°12' E 010°19'3 5.3
2019-Aug-21 03:30N 58°10' E 010°21'3 6.4
2019-Aug-21 03:00N 58°07' E 010°23'3 5.2
2019-Aug-21 02:29N 58°04' E 010°26'2 3.9
2019-Aug-21 02:00N 58°03' E 010°27'2 4.5
2019-Aug-21 01:30N 58°01' E 010°28'2 4.5
2019-Aug-21 01:01N 57°59' E 010°30'2 4.7
2019-Aug-21 00:30N 57°57' E 010°32'3 5.2
2019-Aug-21 00:00N 57°54' E 010°35'3 5.7
2019-Aug-20 23:30N 57°52' E 010°37'2 3.9
2019-Aug-20 23:00N 57°50' E 010°38'2 4.0
2019-Aug-20 22:30N 57°49' E 010°41'3 5.8
2019-Aug-20 22:00N 57°46' E 010°44'4 8.0
2019-Aug-20 21:31N 57°42' E 010°44'4 7.6
2019-Aug-20 21:01N 57°38' E 010°44'3 6.9
2019-Aug-20 20:30N 57°35' E 010°43'3 6.2
2019-Aug-20 20:00N 57°32' E 010°41'3 5.1
2019-Aug-20 19:29N 57°29' E 010°40'4 4.1
2019-Aug-20 18:25N 57°25' E 010°37'2 4.1
2019-Aug-20 17:52N 57°26' E 010°33'0 0.0
2019-Aug-20 17:25N 57°26' E 010°33'0 0.0
2019-Aug-20 16:52N 57°26' E 010°33'0 0.0
2019-Aug-20 16:25N 57°26' E 010°33'0 0.0
2019-Aug-20 15:58N 57°26' E 010°33'0 0.0
2019-Aug-20 15:19N 57°26' E 010°33'0 0.0
2019-Aug-20 14:58N 57°26' E 010°33'0 0.0
2019-Aug-20 14:22N 57°26' E 010°33'0 0.0
2019-Aug-20 13:58N 57°26' E 010°33'0 0.0
2019-Aug-20 13:28N 57°26' E 010°33'0 0.0
2019-Aug-20 12:58N 57°26' E 010°33'0 0.0
2019-Aug-20 12:28N 57°26' E 010°33'0 0.0
2019-Aug-20 11:58N 57°26' E 010°33'0 0.0
2019-Aug-20 11:28N 57°26' E 010°33'0 0.0
2019-Aug-20 10:58N 57°26' E 010°33'0 0.0
2019-Aug-20 10:25N 57°26' E 010°33'0 0.0
2019-Aug-20 09:55N 57°26' E 010°33'0 0.0
2019-Aug-20 09:25N 57°26' E 010°33'0 0.0
2019-Aug-20 08:58N 57°26' E 010°33'0 0.0
2019-Aug-20 08:28N 57°26' E 010°33'0 0.0
2019-Aug-20 07:58N 57°26' E 010°33'0 0.0
2019-Aug-20 07:28N 57°26' E 010°33'0 0.0
2019-Aug-20 06:52N 57°26' E 010°33'0 0.0
2019-Aug-20 06:28N 57°26' E 010°33'0 0.0
2019-Aug-20 05:52N 57°26' E 010°33'0 0.0
2019-Aug-20 05:16N 57°26' E 010°33'0 0.0
2019-Aug-20 04:58N 57°26' E 010°33'0 0.0
2019-Aug-20 04:16N 57°26' E 010°33'0 0.0
2019-Aug-20 03:58N 57°26' E 010°33'0 0.0
2019-Aug-20 03:28N 57°26' E 010°33'0 0.0
2019-Aug-20 02:55N 57°26' E 010°33'0 0.0
2019-Aug-20 02:28N 57°26' E 010°33'0 0.0
2019-Aug-20 01:55N 57°26' E 010°33'0 0.0
2019-Aug-20 01:25N 57°26' E 010°33'0 0.0
2019-Aug-20 00:46N 57°26' E 010°33'0 0.0
2019-Aug-20 00:25N 57°26' E 010°33'0 0.0
2019-Aug-19 23:58N 57°26' E 010°33'0 0.0
2019-Aug-19 23:22N 57°26' E 010°33'0 0.0
2019-Aug-19 22:58N 57°26' E 010°33'0 0.0
2019-Aug-19 22:16N 57°26' E 010°33'0 0.0
2019-Aug-19 21:55N 57°26' E 010°33'0 0.0
2019-Aug-19 21:22N 57°26' E 010°33'0 0.0
2019-Aug-19 20:58N 57°26' E 010°33'0 0.0
2019-Aug-19 20:19N 57°26' E 010°33'0 0.0
2019-Aug-19 19:43N 57°26' E 010°33'0 0.0
2019-Aug-19 19:22N 57°26' E 010°33'0 0.0
2019-Aug-19 18:55N 57°26' E 010°33'0 0.0
2019-Aug-19 18:28N 57°26' E 010°33'0 0.0
2019-Aug-19 17:58N 57°26' E 010°33'0 0.0
2019-Aug-19 17:28N 57°26' E 010°33'1 1.9
2019-Aug-19 17:00N 57°26' E 010°34'1 2.9
2019-Aug-19 16:30N 57°25' E 010°36'3 6.8
2019-Aug-19 16:00N 57°25' E 010°43'4 7.2
2019-Aug-19 15:30N 57°26' E 010°49'1 2.6
2019-Aug-19 15:00N 57°25' E 010°52'3 5.8
2019-Aug-19 14:30N 57°25' E 010°57'3 5.5
2019-Aug-19 14:00N 57°25' E 011°02'2 5.0
2019-Aug-19 13:30N 57°25' E 011°07'2 4.8
2019-Aug-19 13:00N 57°24' E 011°11'2 4.8
2019-Aug-19 12:30N 57°23' E 011°15'2 4.8
2019-Aug-19 12:00N 57°21' E 011°17'3 5.1
2019-Aug-19 11:30N 57°18' E 011°18'3 6.4
2019-Aug-19 11:00N 57°15' E 011°20'3 6.7
2019-Aug-19 10:30N 57°12' E 011°23'4 7.1
2019-Aug-19 10:00N 57°10' E 011°27'4 7.3
2019-Aug-19 09:31N 57°07' E 011°32'4 7.5
2019-Aug-19 09:00N 57°04' E 011°36'52 6.9
2019-Aug-19 01:31N 56°18' E 012°20'0 4.6
2019-Aug-19 01:30N 56°18' E 012°21'3 6.0
2019-Aug-19 01:00N 56°16' E 012°23'4 7.6
2019-Aug-19 00:30N 56°12' E 012°26'3 6.9
2019-Aug-19 00:00N 56°09' E 012°29'3 6.1
2019-Aug-18 23:30N 56°07' E 012°33'3 5.7
2019-Aug-18 23:00N 56°05' E 012°37'3 6.7
2019-Aug-18 22:30N 56°02' E 012°40'4 8.0
2019-Aug-18 22:00N 55°58' E 012°41'3 5.3
2019-Aug-18 21:30N 55°56' E 012°39'3 5.2
2019-Aug-18 21:00N 55°53' E 012°39'3 6.4
2019-Aug-18 20:30N 55°50' E 012°41'3 6.2
2019-Aug-18 20:00N 55°47' E 012°42'3 6.9
2019-Aug-18 19:30N 55°44' E 012°41'4 7.5
2019-Aug-18 19:00N 55°40' E 012°42'4 8.1
2019-Aug-18 18:30N 55°36' E 012°42'4 8.3
2019-Aug-18 18:00N 55°32' E 012°42'4 8.8
2019-Aug-18 17:30N 55°27' E 012°43'4 8.8
2019-Aug-18 17:00N 55°23' E 012°42'2 4.1
2019-Aug-18 16:30N 55°21' E 012°42'1 2.8
2019-Aug-18 16:00N 55°20' E 012°41'1 2.9
2019-Aug-18 15:30N 55°18' E 012°41'2 3.5
2019-Aug-18 15:00N 55°16' E 012°40'2 3.7
2019-Aug-18 14:29N 55°14' E 012°40'31 4.5
2019-Aug-18 07:32N 54°51' E 013°17'2 3.5
2019-Aug-18 06:55N 54°50' E 013°20'2 4.5
2019-Aug-18 06:30N 54°49' E 013°23'3 5.5
2019-Aug-18 06:00N 54°48' E 013°27'3 5.9
2019-Aug-18 05:30N 54°46' E 013°31'3 6.1
2019-Aug-18 05:00N 54°44' E 013°35'63 5.8
2019-Aug-17 18:01N 53°47' E 014°22'4 7.4
2019-Aug-17 17:30N 53°44' E 014°26'2 3.6
2019-Aug-17 17:00N 53°43' E 014°28'4 8.7
2019-Aug-17 16:30N 53°39' E 014°33'4 8.6
2019-Aug-17 16:00N 53°35' E 014°36'4 8.5
2019-Aug-17 15:30N 53°31' E 014°38'4 8.5
2019-Aug-17 15:00N 53°27' E 014°36'2 3.2
2019-Aug-17 14:28N 53°26' E 014°34'0 0.0
2019-Aug-17 13:58N 53°26' E 014°34'0 0.0
2019-Aug-17 13:25N 53°26' E 014°34'0 0.0
2019-Aug-17 12:58N 53°26' E 014°34'0 0.0
2019-Aug-17 12:28N 53°26' E 014°34'0 0.0
2019-Aug-17 11:58N 53°26' E 014°34'0 0.0
2019-Aug-17 11:25N 53°26' E 014°34'0 0.0
2019-Aug-17 10:58N 53°26' E 014°34'0 0.0
2019-Aug-17 10:28N 53°26' E 014°34'0 0.0
2019-Aug-17 09:58N 53°26' E 014°34'0 0.0
2019-Aug-17 09:28N 53°26' E 014°34'0 0.0
2019-Aug-17 08:58N 53°26' E 014°34'0 0.0
2019-Aug-17 08:28N 53°26' E 014°34'0 0.0
2019-Aug-17 07:58N 53°26' E 014°34'0 0.0
2019-Aug-17 07:25N 53°26' E 014°34'0 0.0
2019-Aug-17 06:58N 53°26' E 014°34'0 0.0
2019-Aug-17 06:28N 53°26' E 014°34'0 0.0
2019-Aug-17 05:58N 53°26' E 014°34'0 0.0
2019-Aug-17 05:28N 53°26' E 014°34'0 0.0
2019-Aug-17 04:58N 53°26' E 014°34'0 0.0
2019-Aug-17 04:25N 53°26' E 014°34'0 0.0
2019-Aug-17 03:58N 53°26' E 014°34'0 0.0
2019-Aug-17 03:28N 53°26' E 014°34'0 0.0
2019-Aug-17 02:58N 53°26' E 014°34'0 0.0
2019-Aug-17 02:28N 53°26' E 014°34'0 0.0
2019-Aug-17 01:58N 53°26' E 014°34'0 0.0
2019-Aug-17 01:28N 53°26' E 014°34'0 0.0
2019-Aug-17 00:58N 53°26' E 014°34'0 0.0
2019-Aug-17 00:28N 53°26' E 014°34'0 0.0
2019-Aug-16 23:58N 53°26' E 014°34'0 0.0
2019-Aug-16 23:28N 53°26' E 014°34'0 0.0
2019-Aug-16 22:58N 53°26' E 014°34'0 0.0
2019-Aug-16 22:28N 53°26' E 014°34'0 0.0
2019-Aug-16 21:58N 53°26' E 014°34'0 0.0
2019-Aug-16 21:28N 53°26' E 014°34'0 0.0
2019-Aug-16 20:58N 53°26' E 014°34'0 0.0
2019-Aug-16 20:28N 53°26' E 014°34'0 0.0
2019-Aug-16 19:58N 53°26' E 014°34'0 0.0
2019-Aug-16 19:28N 53°26' E 014°34'0 0.0
2019-Aug-16 18:58N 53°26' E 014°34'0 0.0
2019-Aug-16 18:28N 53°26' E 014°34'0 0.0
2019-Aug-16 17:58N 53°26' E 014°34'0 0.0
2019-Aug-16 17:28N 53°26' E 014°34'0 0.0
2019-Aug-16 16:58N 53°26' E 014°34'0 0.0
2019-Aug-16 16:28N 53°26' E 014°34'0 0.0
2019-Aug-16 15:55N 53°26' E 014°34'0 0.0
2019-Aug-16 15:28N 53°26' E 014°34'0 0.0
2019-Aug-16 14:58N 53°26' E 014°34'0 0.0
2019-Aug-16 14:25N 53°26' E 014°34'0 0.0
2019-Aug-16 13:58N 53°26' E 014°34'0 0.0
2019-Aug-16 13:25N 53°26' E 014°34'0 0.0
2019-Aug-16 12:58N 53°26' E 014°34'0 0.0
2019-Aug-16 12:28N 53°26' E 014°34'0 0.0
2019-Aug-16 11:58N 53°26' E 014°34'0 0.0
2019-Aug-16 11:25N 53°26' E 014°34'0 0.0
2019-Aug-16 10:58N 53°26' E 014°34'0 0.0
2019-Aug-16 10:28N 53°26' E 014°34'0 0.0
2019-Aug-16 09:58N 53°26' E 014°34'0 0.0
2019-Aug-16 09:28N 53°26' E 014°34'0 0.0
2019-Aug-16 08:58N 53°26' E 014°34'0 0.0
2019-Aug-16 08:28N 53°26' E 014°34'0 0.0
2019-Aug-16 07:55N 53°26' E 014°34'0 0.0
2019-Aug-16 07:25N 53°26' E 014°34'0 0.0
2019-Aug-16 06:58N 53°26' E 014°34'0 0.0
2019-Aug-16 06:28N 53°26' E 014°34'0 0.0
2019-Aug-16 05:58N 53°26' E 014°34'0 0.0
2019-Aug-16 05:28N 53°26' E 014°34'0 0.0
2019-Aug-16 04:58N 53°26' E 014°34'0 0.0
2019-Aug-16 04:28N 53°26' E 014°34'0 0.0
2019-Aug-16 03:58N 53°26' E 014°34'0 0.0
2019-Aug-16 03:28N 53°26' E 014°34'0 0.0
2019-Aug-16 02:58N 53°26' E 014°34'0 0.0
2019-Aug-16 02:28N 53°26' E 014°34'0 0.0
2019-Aug-16 01:58N 53°26' E 014°34'0 0.0
2019-Aug-16 01:28N 53°26' E 014°34'0 0.0
2019-Aug-16 00:58N 53°26' E 014°34'0 0.0
2019-Aug-16 00:28N 53°26' E 014°34'0 0.0
2019-Aug-15 23:58N 53°26' E 014°34'0 0.0
2019-Aug-15 23:28N 53°26' E 014°34'0 0.0
2019-Aug-15 22:58N 53°26' E 014°34'0 0.0
2019-Aug-15 22:28N 53°26' E 014°34'0 0.0
2019-Aug-15 21:58N 53°26' E 014°34'0 0.0
2019-Aug-15 21:28N 53°26' E 014°34'0 0.0
2019-Aug-15 20:58N 53°26' E 014°34'0 0.0
2019-Aug-15 20:28N 53°26' E 014°34'0 0.0
2019-Aug-15 19:58N 53°26' E 014°34'0 0.0
2019-Aug-15 19:28N 53°26' E 014°34'0 0.0
2019-Aug-15 18:58N 53°26' E 014°34'0 0.0
2019-Aug-15 18:28N 53°26' E 014°34'0 0.0
2019-Aug-15 17:58N 53°26' E 014°34'0 0.0
2019-Aug-15 17:28N 53°26' E 014°34'0 0.0
2019-Aug-15 16:58N 53°26' E 014°34'0 1.1
2019-Aug-15 16:30N 53°26' E 014°35'3 7.0
2019-Aug-15 16:00N 53°29' E 014°37'4 7.1
2019-Aug-15 15:31N 53°33' E 014°37'4 7.2
2019-Aug-15 15:01N 53°36' E 014°35'  
Track history (hours):
 
Tides and Currents Weather Stations Pressure Air Temp Water Temp Dewpoint Dewpoint Depression Visibility Wind Speed Wind Dir Waves Ship Positions

STS Fryderyk Chopin (Poland)

Ship's website: http://www.fryderykchopin.pl/

Last reported at 2019-Aug-24 13:23 UTC. Time now 2019-Aug-24 20:30 UTC.
Position N 56°08' E 007°37'.

Length 44 m; draft 4.2 m.

Type: Sailing vessel. MMSI: 261000290.

Date/timePositionNaut miles runAvg speedWind from/ knotsBaromVisibWave heightAir tempDewpointWater temp
2019-Aug-24 13:23N 56°08' E 007°37'1 1.9
2019-Aug-24 13:00N 56°09' E 007°38'2 3.6
2019-Aug-24 12:30N 56°11' E 007°39'4 7.3
2019-Aug-24 12:00N 56°14' E 007°41'4 7.0
2019-Aug-24 11:30N 56°18' E 007°43'3 6.7
2019-Aug-24 11:00N 56°21' E 007°46'3 6.6
2019-Aug-24 10:30N 56°24' E 007°48'3 6.3
2019-Aug-24 09:59N 56°27' E 007°50'3 5.8
2019-Aug-24 09:29N 56°29' E 007°52'3 6.0
2019-Aug-24 09:00N 56°32' E 007°54'3 6.0
2019-Aug-24 08:30N 56°35' E 007°56'2 3.5
2019-Aug-24 08:00N 56°37' E 007°57'2 3.5
2019-Aug-24 07:30N 56°38' E 007°58'2 3.2
2019-Aug-24 07:00N 56°40' E 007°59'2 4.9
2019-Aug-24 06:30N 56°42' E 007°60'4 7.0
2019-Aug-24 06:00N 56°45' E 008°02'4 7.2
2019-Aug-24 05:30N 56°49' E 008°03'4 7.8
2019-Aug-24 05:00N 56°53' E 008°04'4 8.0
2019-Aug-24 04:30N 56°57' E 008°06'4 7.8
2019-Aug-24 04:00N 57°00' E 008°08'4 7.5
2019-Aug-24 03:30N 57°04' E 008°10'4 7.5
2019-Aug-24 03:00N 57°08' E 008°11'4 7.6
2019-Aug-24 02:30N 57°11' E 008°13'2 4.8
2019-Aug-24 02:00N 57°14' E 008°14'1 1.6
2019-Aug-24 01:29N 57°13' E 008°15'1 1.8
2019-Aug-24 01:00N 57°12' E 008°15'1 1.8
2019-Aug-24 00:30N 57°11' E 008°15'1 1.9
2019-Aug-23 23:59N 57°10' E 008°15'1 2.3
2019-Aug-23 23:30N 57°09' E 008°16'1 2.6
2019-Aug-23 23:00N 57°08' E 008°18'2 3.8
2019-Aug-23 22:30N 57°06' E 008°19'2 4.7
2019-Aug-23 22:00N 57°04' E 008°21'2 4.1
2019-Aug-23 21:30N 57°06' E 008°20'2 4.5
2019-Aug-23 21:00N 57°08' E 008°19'2 4.9
2019-Aug-23 20:30N 57°11' E 008°18'3 5.1
2019-Aug-23 19:59N 57°13' E 008°17'2 5.0
2019-Aug-23 19:30N 57°16' E 008°16'2 4.5
2019-Aug-23 19:00N 57°18' E 008°15'2 4.7
2019-Aug-23 18:30N 57°20' E 008°14'3 5.3
2019-Aug-23 18:00N 57°23' E 008°12'2 4.1
2019-Aug-23 17:30N 57°24' E 008°11'2 3.4
2019-Aug-23 17:00N 57°26' E 008°09'2 4.5
2019-Aug-23 16:30N 57°28' E 008°08'2 4.7
2019-Aug-23 16:00N 57°30' E 008°08'2 4.9
2019-Aug-23 15:30N 57°33' E 008°07'3 6.3
2019-Aug-23 15:00N 57°36' E 008°04'3 5.2
2019-Aug-23 14:30N 57°38' E 008°02'2 4.5
2019-Aug-23 14:00N 57°40' E 008°02'2 5.0
2019-Aug-23 13:30N 57°43' E 008°02'3 5.3
2019-Aug-23 13:00N 57°45' E 008°01'2 4.0
2019-Aug-23 12:30N 57°47' E 008°01'2 4.2
2019-Aug-23 12:00N 57°50' E 008°02'2 4.3
2019-Aug-23 11:30N 57°52' E 008°02'2 4.8
2019-Aug-23 11:00N 57°54' E 008°03'2 4.8
2019-Aug-23 10:31N 57°56' E 008°04'2 4.9
2019-Aug-23 10:00N 57°59' E 008°04'3 5.2
2019-Aug-23 09:30N 58°01' E 008°03'3 5.5
2019-Aug-23 09:00N 58°04' E 008°04'4 8.0
2019-Aug-23 08:30N 58°08' E 008°01'1 1.7
2019-Aug-23 07:59N 58°08' E 007°60'0 0.0
2019-Aug-23 07:29N 58°08' E 007°60'0 0.0
2019-Aug-23 07:00N 58°08' E 007°60'0 0.0
2019-Aug-23 06:30N 58°08' E 007°60'0 0.0
2019-Aug-23 06:00N 58°08' E 007°60'0 0.0
2019-Aug-23 05:30N 58°08' E 007°60'0 0.0
2019-Aug-23 05:00N 58°08' E 007°60'0 0.0
2019-Aug-23 04:30N 58°08' E 007°60'0 0.0
2019-Aug-23 04:00N 58°08' E 007°60'0 0.0
2019-Aug-23 03:30N 58°08' E 007°60'0 0.0
2019-Aug-23 03:00N 58°08' E 007°60'0 0.0
2019-Aug-23 02:30N 58°08' E 007°60'0 0.0
2019-Aug-23 02:00N 58°08' E 007°60'0 0.0
2019-Aug-23 01:30N 58°08' E 007°60'0 0.0
2019-Aug-23 01:00N 58°08' E 007°60'0 0.0
2019-Aug-23 00:30N 58°08' E 007°60'0 0.0
2019-Aug-23 00:00N 58°08' E 007°60'0 0.0
2019-Aug-22 23:30N 58°08' E 007°60'0 0.0
2019-Aug-22 23:00N 58°08' E 007°60'0 0.0
2019-Aug-22 22:30N 58°08' E 007°60'0 0.0
2019-Aug-22 22:00N 58°08' E 007°60'0 0.0
2019-Aug-22 21:30N 58°08' E 007°60'0 0.0
2019-Aug-22 21:00N 58°08' E 007°60'0 0.0
2019-Aug-22 20:30N 58°08' E 007°60'0 0.0
2019-Aug-22 20:00N 58°08' E 007°60'0 0.0
2019-Aug-22 19:30N 58°08' E 007°60'0 0.0
2019-Aug-22 19:00N 58°08' E 007°60'0 0.0
2019-Aug-22 18:30N 58°08' E 007°60'0 0.0
2019-Aug-22 18:00N 58°08' E 007°60'0 0.0
2019-Aug-22 17:30N 58°08' E 007°60'0 0.0
2019-Aug-22 17:00N 58°08' E 007°60'0 0.0
2019-Aug-22 16:30N 58°08' E 007°60'0 0.0
2019-Aug-22 16:00N 58°08' E 007°60'0 0.0
2019-Aug-22 15:30N 58°08' E 007°60'0 0.0
2019-Aug-22 15:00N 58°08' E 007°60'0 0.0
2019-Aug-22 14:30N 58°08' E 007°60'0 0.0
2019-Aug-22 14:00N 58°08' E 007°60'0 0.0
2019-Aug-22 13:30N 58°08' E 007°60'0 0.0
2019-Aug-22 13:00N 58°08' E 007°60'0 0.0
2019-Aug-22 12:30N 58°08' E 007°60'0 0.0
2019-Aug-22 12:00N 58°08' E 007°60'0 0.0
2019-Aug-22 11:30N 58°08' E 007°60'0 0.0
2019-Aug-22 11:00N 58°08' E 007°60'0 0.0
2019-Aug-22 10:30N 58°08' E 007°60'0 0.0
2019-Aug-22 10:00N 58°08' E 007°60'0 0.0
2019-Aug-22 09:30N 58°08' E 007°60'0 0.0
2019-Aug-22 09:00N 58°08' E 007°60'0 0.0
2019-Aug-22 08:30N 58°08' E 007°60'0 0.0
2019-Aug-22 08:00N 58°08' E 007°60'0 0.0
2019-Aug-22 07:30N 58°08' E 007°60'0 0.0
2019-Aug-22 07:00N 58°08' E 007°60'0 0.0
2019-Aug-22 06:30N 58°08' E 007°60'0 0.0
2019-Aug-22 06:00N 58°08' E 007°60'0 0.0
2019-Aug-22 05:30N 58°08' E 007°60'0 0.0
2019-Aug-22 05:00N 58°08' E 007°60'0 0.0
2019-Aug-22 04:30N 58°08' E 007°60'0 0.2
2019-Aug-22 04:00N 58°08' E 007°60'2 3.7
2019-Aug-22 03:30N 58°07' E 008°02'3 6.2
2019-Aug-22 03:00N 58°04' E 008°05'3 6.7
2019-Aug-22 02:30N 58°04' E 008°12'3 4.7
2019-Aug-22 01:58N 58°05' E 008°15'0 0.9
2019-Aug-22 01:28N 58°05' E 008°16'0 0.9
2019-Aug-22 00:58N 58°04' E 008°16'0 0.7
2019-Aug-22 00:28N 58°04' E 008°16'1 1.0
2019-Aug-21 23:58N 58°04' E 008°17'1 1.5
2019-Aug-21 23:31N 58°04' E 008°18'3 6.6
2019-Aug-21 23:00N 58°03' E 008°25'4 8.2
2019-Aug-21 22:30N 58°03' E 008°32'3 5.9
2019-Aug-21 22:01N 58°03' E 008°38'4 7.1
2019-Aug-21 21:30N 58°06' E 008°41'4 9.0
2019-Aug-21 21:00N 58°10' E 008°46'4 8.5
2019-Aug-21 20:30N 58°13' E 008°49'4 7.8
2019-Aug-21 20:01N 58°17' E 008°52'4 7.4
2019-Aug-21 19:30N 58°21' E 008°54'4 7.1
2019-Aug-21 19:00N 58°24' E 008°55'3 5.6
2019-Aug-21 18:31N 58°27' E 008°57'3 6.4
2019-Aug-21 18:00N 58°27' E 009°03'3 5.9
2019-Aug-21 17:30N 58°27' E 009°09'3 5.5
2019-Aug-21 17:00N 58°28' E 009°14'3 5.7
2019-Aug-21 16:30N 58°28' E 009°19'2 4.8
2019-Aug-21 16:00N 58°27' E 009°24'4 8.0
2019-Aug-21 15:30N 58°25' E 009°30'4 7.9
2019-Aug-21 15:00N 58°23' E 009°36'4 7.7
2019-Aug-21 14:29N 58°20' E 009°41'4 7.9
2019-Aug-21 14:00N 58°17' E 009°46'4 7.4
2019-Aug-21 13:30N 58°14' E 009°51'4 7.2
2019-Aug-21 13:00N 58°11' E 009°55'4 7.3
2019-Aug-21 12:29N 58°08' E 009°59'3 6.7
2019-Aug-21 11:59N 58°05' E 010°03'3 5.7
2019-Aug-21 11:30N 58°03' E 010°05'3 5.2
2019-Aug-21 11:01N 58°06' E 010°05'3 5.6
2019-Aug-21 10:30N 58°08' E 010°05'2 4.8
2019-Aug-21 10:01N 58°11' E 010°06'2 4.2
2019-Aug-21 09:31N 58°13' E 010°07'2 4.5
2019-Aug-21 09:00N 58°15' E 010°08'2 4.5
2019-Aug-21 08:30N 58°17' E 010°08'2 4.4
2019-Aug-21 08:01N 58°19' E 010°09'2 4.2
2019-Aug-21 07:31N 58°21' E 010°11'2 3.1
2019-Aug-21 07:00N 58°23' E 010°11'0 0.8
2019-Aug-21 06:30N 58°22' E 010°12'2 3.6
2019-Aug-21 06:00N 58°21' E 010°12'2 4.3
2019-Aug-21 05:30N 58°19' E 010°14'2 4.3
2019-Aug-21 05:01N 58°17' E 010°15'2 4.4
2019-Aug-21 04:30N 58°15' E 010°17'3 5.3
2019-Aug-21 04:00N 58°12' E 010°19'3 5.3
2019-Aug-21 03:30N 58°10' E 010°21'3 6.4
2019-Aug-21 03:00N 58°07' E 010°23'3 5.2
2019-Aug-21 02:29N 58°04' E 010°26'2 3.9
2019-Aug-21 02:00N 58°03' E 010°27'2 4.5
2019-Aug-21 01:30N 58°01' E 010°28'2 4.5
2019-Aug-21 01:01N 57°59' E 010°30'2 4.7
2019-Aug-21 00:30N 57°57' E 010°32'3 5.2
2019-Aug-21 00:00N 57°54' E 010°35'3 5.7
2019-Aug-20 23:30N 57°52' E 010°37'2 3.9
2019-Aug-20 23:00N 57°50' E 010°38'2 4.0
2019-Aug-20 22:30N 57°49' E 010°41'3 5.8
2019-Aug-20 22:00N 57°46' E 010°44'4 8.0
2019-Aug-20 21:31N 57°42' E 010°44'4 7.6
2019-Aug-20 21:01N 57°38' E 010°44'3 6.9
2019-Aug-20 20:30N 57°35' E 010°43'3 6.2
2019-Aug-20 20:00N 57°32' E 010°41'3 5.1
2019-Aug-20 19:29N 57°29' E 010°40'4 4.1
2019-Aug-20 18:25N 57°25' E 010°37'2 4.1
2019-Aug-20 17:52N 57°26' E 010°33'0 0.0
2019-Aug-20 17:25N 57°26' E 010°33'0 0.0
2019-Aug-20 16:52N 57°26' E 010°33'0 0.0
2019-Aug-20 16:25N 57°26' E 010°33'0 0.0
2019-Aug-20 15:58N 57°26' E 010°33'0 0.0
2019-Aug-20 15:19N 57°26' E 010°33'0 0.0
2019-Aug-20 14:58N 57°26' E 010°33'0 0.0
2019-Aug-20 14:22N 57°26' E 010°33'0 0.0
2019-Aug-20 13:58N 57°26' E 010°33'0 0.0
2019-Aug-20 13:28N 57°26' E 010°33'0 0.0
2019-Aug-20 12:58N 57°26' E 010°33'0 0.0
2019-Aug-20 12:28N 57°26' E 010°33'0 0.0
2019-Aug-20 11:58N 57°26' E 010°33'0 0.0
2019-Aug-20 11:28N 57°26' E 010°33'0 0.0
2019-Aug-20 10:58N 57°26' E 010°33'0 0.0
2019-Aug-20 10:25N 57°26' E 010°33'0 0.0
2019-Aug-20 09:55N 57°26' E 010°33'0 0.0
2019-Aug-20 09:25N 57°26' E 010°33'0 0.0
2019-Aug-20 08:58N 57°26' E 010°33'0 0.0
2019-Aug-20 08:28N 57°26' E 010°33'0 0.0
2019-Aug-20 07:58N 57°26' E 010°33'0 0.0
2019-Aug-20 07:28N 57°26' E 010°33'0 0.0
2019-Aug-20 06:52N 57°26' E 010°33'0 0.0
2019-Aug-20 06:28N 57°26' E 010°33'0 0.0
2019-Aug-20 05:52N 57°26' E 010°33'0 0.0
2019-Aug-20 05:16N 57°26' E 010°33'0 0.0
2019-Aug-20 04:58N 57°26' E 010°33'0 0.0
2019-Aug-20 04:16N 57°26' E 010°33'0 0.0
2019-Aug-20 03:58N 57°26' E 010°33'0 0.0
2019-Aug-20 03:28N 57°26' E 010°33'0 0.0
2019-Aug-20 02:55N 57°26' E 010°33'0 0.0
2019-Aug-20 02:28N 57°26' E 010°33'0 0.0
2019-Aug-20 01:55N 57°26' E 010°33'0 0.0
2019-Aug-20 01:25N 57°26' E 010°33'0 0.0
2019-Aug-20 00:46N 57°26' E 010°33'0 0.0
2019-Aug-20 00:25N 57°26' E 010°33'0 0.0
2019-Aug-19 23:58N 57°26' E 010°33'0 0.0
2019-Aug-19 23:22N 57°26' E 010°33'0 0.0
2019-Aug-19 22:58N 57°26' E 010°33'0 0.0
2019-Aug-19 22:16N 57°26' E 010°33'0 0.0
2019-Aug-19 21:55N 57°26' E 010°33'0 0.0
2019-Aug-19 21:22N 57°26' E 010°33'0 0.0
2019-Aug-19 20:58N 57°26' E 010°33'0 0.0
2019-Aug-19 20:19N 57°26' E 010°33'0 0.0
2019-Aug-19 19:43N 57°26' E 010°33'0 0.0
2019-Aug-19 19:22N 57°26' E 010°33'0 0.0
2019-Aug-19 18:55N 57°26' E 010°33'0 0.0
2019-Aug-19 18:28N 57°26' E 010°33'0 0.0
2019-Aug-19 17:58N 57°26' E 010°33'0 0.0
2019-Aug-19 17:28N 57°26' E 010°33'1 1.9
2019-Aug-19 17:00N 57°26' E 010°34'1 2.9
2019-Aug-19 16:30N 57°25' E 010°36'3 6.8
2019-Aug-19 16:00N 57°25' E 010°43'4 7.2
2019-Aug-19 15:30N 57°26' E 010°49'1 2.6
2019-Aug-19 15:00N 57°25' E 010°52'3 5.8
2019-Aug-19 14:30N 57°25' E 010°57'3 5.5
2019-Aug-19 14:00N 57°25' E 011°02'2 5.0
2019-Aug-19 13:30N 57°25' E 011°07'2 4.8
2019-Aug-19 13:00N 57°24' E 011°11'2 4.8
2019-Aug-19 12:30N 57°23' E 011°15'2 4.8
2019-Aug-19 12:00N 57°21' E 011°17'3 5.1
2019-Aug-19 11:30N 57°18' E 011°18'3 6.4
2019-Aug-19 11:00N 57°15' E 011°20'3 6.7
2019-Aug-19 10:30N 57°12' E 011°23'4 7.1
2019-Aug-19 10:00N 57°10' E 011°27'4 7.3
2019-Aug-19 09:31N 57°07' E 011°32'4 7.5
2019-Aug-19 09:00N 57°04' E 011°36'52 6.9
2019-Aug-19 01:31N 56°18' E 012°20'0 4.6
2019-Aug-19 01:30N 56°18' E 012°21'3 6.0
2019-Aug-19 01:00N 56°16' E 012°23'4 7.6
2019-Aug-19 00:30N 56°12' E 012°26'3 6.9
2019-Aug-19 00:00N 56°09' E 012°29'3 6.1
2019-Aug-18 23:30N 56°07' E 012°33'3 5.7
2019-Aug-18 23:00N 56°05' E 012°37'3 6.7
2019-Aug-18 22:30N 56°02' E 012°40'4 8.0
2019-Aug-18 22:00N 55°58' E 012°41'3 5.3
2019-Aug-18 21:30N 55°56' E 012°39'3 5.2
2019-Aug-18 21:00N 55°53' E 012°39'3 6.4
2019-Aug-18 20:30N 55°50' E 012°41'3 6.2
2019-Aug-18 20:00N 55°47' E 012°42'3 6.9
2019-Aug-18 19:30N 55°44' E 012°41'4 7.5
2019-Aug-18 19:00N 55°40' E 012°42'4 8.1
2019-Aug-18 18:30N 55°36' E 012°42'4 8.3
2019-Aug-18 18:00N 55°32' E 012°42'4 8.8
2019-Aug-18 17:30N 55°27' E 012°43'4 8.8
2019-Aug-18 17:00N 55°23' E 012°42'2 4.1
2019-Aug-18 16:30N 55°21' E 012°42'1 2.8
2019-Aug-18 16:00N 55°20' E 012°41'1 2.9
2019-Aug-18 15:30N 55°18' E 012°41'2 3.5
2019-Aug-18 15:00N 55°16' E 012°40'2 3.7
2019-Aug-18 14:29N 55°14' E 012°40'31 4.5
2019-Aug-18 07:32N 54°51' E 013°17'2 3.5
2019-Aug-18 06:55N 54°50' E 013°20'2 4.5
2019-Aug-18 06:30N 54°49' E 013°23'3 5.5
2019-Aug-18 06:00N 54°48' E 013°27'3 5.9
2019-Aug-18 05:30N 54°46' E 013°31'3 6.1
2019-Aug-18 05:00N 54°44' E 013°35'63 5.8
2019-Aug-17 18:01N 53°47' E 014°22'4 7.4
2019-Aug-17 17:30N 53°44' E 014°26'2 3.6
2019-Aug-17 17:00N 53°43' E 014°28'4 8.7
2019-Aug-17 16:30N 53°39' E 014°33'4 8.6
2019-Aug-17 16:00N 53°35' E 014°36'4 8.5
2019-Aug-17 15:30N 53°31' E 014°38'4 8.5
2019-Aug-17 15:00N 53°27' E 014°36'2 3.2
2019-Aug-17 14:28N 53°26' E 014°34'0 0.0
2019-Aug-17 13:58N 53°26' E 014°34'0 0.0
2019-Aug-17 13:25N 53°26' E 014°34'0 0.0
2019-Aug-17 12:58N 53°26' E 014°34'0 0.0
2019-Aug-17 12:28N 53°26' E 014°34'0 0.0
2019-Aug-17 11:58N 53°26' E 014°34'0 0.0
2019-Aug-17 11:25N 53°26' E 014°34'0 0.0
2019-Aug-17 10:58N 53°26' E 014°34'0 0.0
2019-Aug-17 10:28N 53°26' E 014°34'0 0.0
2019-Aug-17 09:58N 53°26' E 014°34'0 0.0
2019-Aug-17 09:28N 53°26' E 014°34'0 0.0
2019-Aug-17 08:58N 53°26' E 014°34'0 0.0
2019-Aug-17 08:28N 53°26' E 014°34'0 0.0
2019-Aug-17 07:58N 53°26' E 014°34'0 0.0
2019-Aug-17 07:25N 53°26' E 014°34'0 0.0
2019-Aug-17 06:58N 53°26' E 014°34'0 0.0
2019-Aug-17 06:28N 53°26' E 014°34'0 0.0
2019-Aug-17 05:58N 53°26' E 014°34'0 0.0
2019-Aug-17 05:28N 53°26' E 014°34'0 0.0
2019-Aug-17 04:58N 53°26' E 014°34'0 0.0
2019-Aug-17 04:25N 53°26' E 014°34'0 0.0
2019-Aug-17 03:58N 53°26' E 014°34'0 0.0
2019-Aug-17 03:28N 53°26' E 014°34'0 0.0
2019-Aug-17 02:58N 53°26' E 014°34'0 0.0
2019-Aug-17 02:28N 53°26' E 014°34'0 0.0
2019-Aug-17 01:58N 53°26' E 014°34'0 0.0
2019-Aug-17 01:28N 53°26' E 014°34'0 0.0
2019-Aug-17 00:58N 53°26' E 014°34'0 0.0
2019-Aug-17 00:28N 53°26' E 014°34'0 0.0
2019-Aug-16 23:58N 53°26' E 014°34'0 0.0
2019-Aug-16 23:28N 53°26' E 014°34'0 0.0
2019-Aug-16 22:58N 53°26' E 014°34'0 0.0
2019-Aug-16 22:28N 53°26' E 014°34'0 0.0
2019-Aug-16 21:58N 53°26' E 014°34'0 0.0
2019-Aug-16 21:28N 53°26' E 014°34'0 0.0
2019-Aug-16 20:58N 53°26' E 014°34'0 0.0
2019-Aug-16 20:28N 53°26' E 014°34'0 0.0
2019-Aug-16 19:58N 53°26' E 014°34'0 0.0
2019-Aug-16 19:28N 53°26' E 014°34'0 0.0
2019-Aug-16 18:58N 53°26' E 014°34'0 0.0
2019-Aug-16 18:28N 53°26' E 014°34'0 0.0
2019-Aug-16 17:58N 53°26' E 014°34'0 0.0
2019-Aug-16 17:28N 53°26' E 014°34'0 0.0
2019-Aug-16 16:58N 53°26' E 014°34'0 0.0
2019-Aug-16 16:28N 53°26' E 014°34'0 0.0
2019-Aug-16 15:55N 53°26' E 014°34'0 0.0
2019-Aug-16 15:28N 53°26' E 014°34'0 0.0
2019-Aug-16 14:58N 53°26' E 014°34'0 0.0
2019-Aug-16 14:25N 53°26' E 014°34'0 0.0
2019-Aug-16 13:58N 53°26' E 014°34'0 0.0
2019-Aug-16 13:25N 53°26' E 014°34'0 0.0
2019-Aug-16 12:58N 53°26' E 014°34'0 0.0
2019-Aug-16 12:28N 53°26' E 014°34'0 0.0
2019-Aug-16 11:58N 53°26' E 014°34'0 0.0
2019-Aug-16 11:25N 53°26' E 014°34'0 0.0
2019-Aug-16 10:58N 53°26' E 014°34'0 0.0
2019-Aug-16 10:28N 53°26' E 014°34'0 0.0
2019-Aug-16 09:58N 53°26' E 014°34'0 0.0
2019-Aug-16 09:28N 53°26' E 014°34'0 0.0
2019-Aug-16 08:58N 53°26' E 014°34'0 0.0
2019-Aug-16 08:28N 53°26' E 014°34'0 0.0
2019-Aug-16 07:55N 53°26' E 014°34'0 0.0
2019-Aug-16 07:25N 53°26' E 014°34'0 0.0
2019-Aug-16 06:58N 53°26' E 014°34'0 0.0
2019-Aug-16 06:28N 53°26' E 014°34'0 0.0
2019-Aug-16 05:58N 53°26' E 014°34'0 0.0
2019-Aug-16 05:28N 53°26' E 014°34'0 0.0
2019-Aug-16 04:58N 53°26' E 014°34'0 0.0
2019-Aug-16 04:28N 53°26' E 014°34'0 0.0
2019-Aug-16 03:58N 53°26' E 014°34'0 0.0
2019-Aug-16 03:28N 53°26' E 014°34'0 0.0
2019-Aug-16 02:58N 53°26' E 014°34'0 0.0
2019-Aug-16 02:28N 53°26' E 014°34'0 0.0
2019-Aug-16 01:58N 53°26' E 014°34'0 0.0
2019-Aug-16 01:28N 53°26' E 014°34'0 0.0
2019-Aug-16 00:58N 53°26' E 014°34'0 0.0
2019-Aug-16 00:28N 53°26' E 014°34'0 0.0
2019-Aug-15 23:58N 53°26' E 014°34'0 0.0
2019-Aug-15 23:28N 53°26' E 014°34'0 0.0
2019-Aug-15 22:58N 53°26' E 014°34'0 0.0
2019-Aug-15 22:28N 53°26' E 014°34'0 0.0
2019-Aug-15 21:58N 53°26' E 014°34'0 0.0
2019-Aug-15 21:28N 53°26' E 014°34'0 0.0
2019-Aug-15 20:58N 53°26' E 014°34'0 0.0
2019-Aug-15 20:28N 53°26' E 014°34'0 0.0
2019-Aug-15 19:58N 53°26' E 014°34'0 0.0
2019-Aug-15 19:28N 53°26' E 014°34'0 0.0
2019-Aug-15 18:58N 53°26' E 014°34'0 0.0
2019-Aug-15 18:28N 53°26' E 014°34'0 0.0
2019-Aug-15 17:58N 53°26' E 014°34'0 0.0
2019-Aug-15 17:28N 53°26' E 014°34'0 0.0
2019-Aug-15 16:58N 53°26' E 014°34'0 1.1
2019-Aug-15 16:30N 53°26' E 014°35'3 7.0
2019-Aug-15 16:00N 53°29' E 014°37'4 7.1
2019-Aug-15 15:31N 53°33' E 014°37'4 7.2
2019-Aug-15 15:01N 53°36' E 014°35'  

Dump ship's entire track history